sensor_id;sensor_type;location;lat;lon;timestamp;P1;durP1;ratioP1;P2;durP2;ratioP2
25854;SDS011;13680;49.936;11.344;2023-05-10T00:02:22;5.25;;;2.92;;
25854;SDS011;13680;49.936;11.344;2023-05-10T00:04:48;5.57;;;2.65;;
25854;SDS011;13680;49.936;11.344;2023-05-10T00:07:13;5.88;;;3.47;;
25854;SDS011;13680;49.936;11.344;2023-05-10T00:09:39;11.90;;;3.00;;
25854;SDS011;13680;49.936;11.344;2023-05-10T00:12:05;4.80;;;2.90;;
25854;SDS011;13680;49.936;11.344;2023-05-10T00:14:30;6.97;;;3.45;;
25854;SDS011;13680;49.936;11.344;2023-05-10T00:16:56;7.97;;;3.03;;
25854;SDS011;13680;49.936;11.344;2023-05-10T00:19:21;5.93;;;2.97;;
25854;SDS011;13680;49.936;11.344;2023-05-10T00:21:46;4.50;;;3.13;;
25854;SDS011;13680;49.936;11.344;2023-05-10T00:24:12;7.15;;;3.30;;
25854;SDS011;13680;49.936;11.344;2023-05-10T00:26:37;6.63;;;3.20;;
25854;SDS011;13680;49.936;11.344;2023-05-10T00:29:02;6.13;;;3.33;;
25854;SDS011;13680;49.936;11.344;2023-05-10T00:31:28;7.70;;;3.15;;
25854;SDS011;13680;49.936;11.344;2023-05-10T00:33:53;3.15;;;2.55;;
25854;SDS011;13680;49.936;11.344;2023-05-10T00:36:19;8.35;;;3.20;;
25854;SDS011;13680;49.936;11.344;2023-05-10T00:38:45;4.65;;;2.95;;
25854;SDS011;13680;49.936;11.344;2023-05-10T00:41:11;7.85;;;3.00;;
25854;SDS011;13680;49.936;11.344;2023-05-10T00:43:36;4.40;;;2.78;;
25854;SDS011;13680;49.936;11.344;2023-05-10T00:46:01;7.57;;;3.00;;
25854;SDS011;13680;49.936;11.344;2023-05-10T00:48:28;7.50;;;3.10;;
25854;SDS011;13680;49.936;11.344;2023-05-10T00:50:53;6.47;;;3.33;;
25854;SDS011;13680;49.936;11.344;2023-05-10T00:53:19;6.80;;;3.40;;
25854;SDS011;13680;49.936;11.344;2023-05-10T00:55:44;6.93;;;3.03;;
25854;SDS011;13680;49.936;11.344;2023-05-10T00:58:10;5.32;;;2.92;;
25854;SDS011;13680;49.936;11.344;2023-05-10T01:00:35;5.43;;;3.38;;
25854;SDS011;13680;49.936;11.344;2023-05-10T01:03:02;6.85;;;3.33;;
25854;SDS011;13680;49.936;11.344;2023-05-10T01:05:27;9.30;;;3.05;;
25854;SDS011;13680;49.936;11.344;2023-05-10T01:07:53;7.30;;;3.33;;
25854;SDS011;13680;49.936;11.344;2023-05-10T01:10:18;4.72;;;3.25;;
25854;SDS011;13680;49.936;11.344;2023-05-10T01:12:44;12.88;;;3.42;;
25854;SDS011;13680;49.936;11.344;2023-05-10T01:15:11;6.03;;;3.20;;
25854;SDS011;13680;49.936;11.344;2023-05-10T01:17:38;5.22;;;3.28;;
25854;SDS011;13680;49.936;11.344;2023-05-10T01:20:06;4.93;;;3.13;;
25854;SDS011;13680;49.936;11.344;2023-05-10T01:31:30;10.07;;;3.20;;
25854;SDS011;13680;49.936;11.344;2023-05-10T01:34:08;4.90;;;3.53;;
25854;SDS011;13680;49.936;11.344;2023-05-10T01:41:59;5.68;;;3.53;;
25854;SDS011;13680;49.936;11.344;2023-05-10T01:44:34;4.50;;;3.00;;
25854;SDS011;13680;49.936;11.344;2023-05-10T01:47:07;9.32;;;3.30;;
25854;SDS011;13680;49.936;11.344;2023-05-10T01:49:39;7.00;;;3.42;;
25854;SDS011;13680;49.936;11.344;2023-05-10T01:52:09;5.40;;;2.80;;
25854;SDS011;13680;49.936;11.344;2023-05-10T01:54:42;8.38;;;2.97;;
25854;SDS011;13680;49.936;11.344;2023-05-10T01:57:14;3.78;;;2.72;;
25854;SDS011;13680;49.936;11.344;2023-05-10T01:59:43;4.97;;;2.85;;
25854;SDS011;13680;49.936;11.344;2023-05-10T02:02:14;6.97;;;2.92;;
25854;SDS011;13680;49.936;11.344;2023-05-10T02:04:41;5.20;;;3.40;;
25854;SDS011;13680;49.936;11.344;2023-05-10T02:07:08;4.22;;;3.15;;
25854;SDS011;13680;49.936;11.344;2023-05-10T02:09:35;10.73;;;3.40;;
25854;SDS011;13680;49.936;11.344;2023-05-10T02:12:02;5.22;;;3.42;;
25854;SDS011;13680;49.936;11.344;2023-05-10T02:14:30;4.45;;;3.42;;
25854;SDS011;13680;49.936;11.344;2023-05-10T02:16:58;6.35;;;2.95;;
25854;SDS011;13680;49.936;11.344;2023-05-10T02:19:25;6.22;;;3.45;;
25854;SDS011;13680;49.936;11.344;2023-05-10T02:21:52;6.78;;;2.85;;
25854;SDS011;13680;49.936;11.344;2023-05-10T02:24:20;7.47;;;3.45;;
25854;SDS011;13680;49.936;11.344;2023-05-10T02:26:47;4.80;;;3.35;;
25854;SDS011;13680;49.936;11.344;2023-05-10T02:29:16;8.07;;;3.10;;
25854;SDS011;13680;49.936;11.344;2023-05-10T02:31:43;8.70;;;4.40;;
25854;SDS011;13680;49.936;11.344;2023-05-10T02:34:09;6.60;;;3.65;;
25854;SDS011;13680;49.936;11.344;2023-05-10T02:36:36;7.05;;;3.53;;
25854;SDS011;13680;49.936;11.344;2023-05-10T02:39:03;4.97;;;3.50;;
25854;SDS011;13680;49.936;11.344;2023-05-10T02:41:34;5.32;;;3.25;;
25854;SDS011;13680;49.936;11.344;2023-05-10T02:44:01;6.75;;;3.40;;
25854;SDS011;13680;49.936;11.344;2023-05-10T02:46:28;6.25;;;3.35;;
25854;SDS011;13680;49.936;11.344;2023-05-10T02:48:53;5.00;;;3.30;;
25854;SDS011;13680;49.936;11.344;2023-05-10T02:51:19;4.65;;;3.55;;
25854;SDS011;13680;49.936;11.344;2023-05-10T02:53:49;8.23;;;3.40;;
25854;SDS011;13680;49.936;11.344;2023-05-10T02:56:40;4.80;;;3.58;;
25854;SDS011;13680;49.936;11.344;2023-05-10T02:59:07;5.15;;;3.60;;
25854;SDS011;13680;49.936;11.344;2023-05-10T03:01:32;5.07;;;3.97;;
25854;SDS011;13680;49.936;11.344;2023-05-10T03:03:58;6.32;;;4.07;;
25854;SDS011;13680;49.936;11.344;2023-05-10T03:06:23;7.70;;;3.83;;
25854;SDS011;13680;49.936;11.344;2023-05-10T03:08:48;5.55;;;3.80;;
25854;SDS011;13680;49.936;11.344;2023-05-10T03:17:22;6.95;;;4.20;;
25854;SDS011;13680;49.936;11.344;2023-05-10T03:19:55;7.35;;;4.80;;
25854;SDS011;13680;49.936;11.344;2023-05-10T03:22:26;6.00;;;4.28;;
25854;SDS011;13680;49.936;11.344;2023-05-10T03:24:56;9.43;;;3.95;;
25854;SDS011;13680;49.936;11.344;2023-05-10T03:27:23;9.07;;;4.22;;
25854;SDS011;13680;49.936;11.344;2023-05-10T03:29:51;7.28;;;4.13;;
25854;SDS011;13680;49.936;11.344;2023-05-10T03:32:18;11.35;;;4.10;;
25854;SDS011;13680;49.936;11.344;2023-05-10T03:34:44;5.95;;;4.20;;
25854;SDS011;13680;49.936;11.344;2023-05-10T03:37:09;6.13;;;4.18;;
25854;SDS011;13680;49.936;11.344;2023-05-10T03:39:34;5.05;;;3.95;;
25854;SDS011;13680;49.936;11.344;2023-05-10T03:42:00;9.85;;;4.40;;
25854;SDS011;13680;49.936;11.344;2023-05-10T03:44:25;8.30;;;4.45;;
25854;SDS011;13680;49.936;11.344;2023-05-10T03:46:51;12.98;;;4.32;;
25854;SDS011;13680;49.936;11.344;2023-05-10T03:49:16;4.82;;;3.92;;
25854;SDS011;13680;49.936;11.344;2023-05-10T03:51:41;6.63;;;4.30;;
25854;SDS011;13680;49.936;11.344;2023-05-10T03:54:06;7.70;;;3.97;;
25854;SDS011;13680;49.936;11.344;2023-05-10T03:56:32;5.57;;;3.78;;
25854;SDS011;13680;49.936;11.344;2023-05-10T03:58:57;5.47;;;4.20;;
25854;SDS011;13680;49.936;11.344;2023-05-10T04:01:23;5.75;;;4.55;;
25854;SDS011;13680;49.936;11.344;2023-05-10T04:03:48;9.25;;;4.72;;
25854;SDS011;13680;49.936;11.344;2023-05-10T04:06:13;7.38;;;4.68;;
25854;SDS011;13680;49.936;11.344;2023-05-10T04:08:39;12.00;;;4.80;;
25854;SDS011;13680;49.936;11.344;2023-05-10T04:11:05;8.65;;;4.90;;
25854;SDS011;13680;49.936;11.344;2023-05-10T04:13:34;10.30;;;5.30;;
25854;SDS011;13680;49.936;11.344;2023-05-10T04:16:00;9.23;;;5.05;;
25854;SDS011;13680;49.936;11.344;2023-05-10T04:18:26;5.82;;;4.90;;
25854;SDS011;13680;49.936;11.344;2023-05-10T04:20:51;6.35;;;4.78;;
25854;SDS011;13680;49.936;11.344;2023-05-10T04:23:16;8.40;;;4.97;;
25854;SDS011;13680;49.936;11.344;2023-05-10T04:25:42;7.82;;;5.20;;
25854;SDS011;13680;49.936;11.344;2023-05-10T04:28:08;8.82;;;5.45;;
25854;SDS011;13680;49.936;11.344;2023-05-10T04:30:33;11.18;;;5.70;;
25854;SDS011;13680;49.936;11.344;2023-05-10T04:32:59;9.73;;;5.55;;
25854;SDS011;13680;49.936;11.344;2023-05-10T04:35:25;7.28;;;5.10;;
25854;SDS011;13680;49.936;11.344;2023-05-10T04:37:51;8.90;;;4.90;;
25854;SDS011;13680;49.936;11.344;2023-05-10T04:40:16;8.43;;;4.78;;
25854;SDS011;13680;49.936;11.344;2023-05-10T04:42:42;10.50;;;5.25;;
25854;SDS011;13680;49.936;11.344;2023-05-10T04:45:08;7.78;;;5.90;;
25854;SDS011;13680;49.936;11.344;2023-05-10T04:47:34;6.55;;;5.05;;
25854;SDS011;13680;49.936;11.344;2023-05-10T04:50:00;8.32;;;5.38;;
25854;SDS011;13680;49.936;11.344;2023-05-10T04:52:25;7.82;;;5.68;;
25854;SDS011;13680;49.936;11.344;2023-05-10T04:54:51;7.70;;;5.03;;
25854;SDS011;13680;49.936;11.344;2023-05-10T04:57:16;8.50;;;5.35;;
25854;SDS011;13680;49.936;11.344;2023-05-10T04:59:42;7.75;;;5.53;;
25854;SDS011;13680;49.936;11.344;2023-05-10T05:02:07;6.90;;;5.35;;
25854;SDS011;13680;49.936;11.344;2023-05-10T05:04:33;10.13;;;5.85;;
25854;SDS011;13680;49.936;11.344;2023-05-10T05:06:58;11.10;;;6.10;;
25854;SDS011;13680;49.936;11.344;2023-05-10T05:09:24;7.25;;;5.80;;
25854;SDS011;13680;49.936;11.344;2023-05-10T05:11:49;9.57;;;6.00;;
25854;SDS011;13680;49.936;11.344;2023-05-10T05:14:14;10.65;;;6.43;;
25854;SDS011;13680;49.936;11.344;2023-05-10T05:16:40;9.40;;;6.47;;
25854;SDS011;13680;49.936;11.344;2023-05-10T05:19:05;9.52;;;5.72;;
25854;SDS011;13680;49.936;11.344;2023-05-10T05:21:30;9.55;;;6.15;;
25854;SDS011;13680;49.936;11.344;2023-05-10T05:23:57;11.95;;;7.07;;
25854;SDS011;13680;49.936;11.344;2023-05-10T05:26:22;7.80;;;6.03;;
25854;SDS011;13680;49.936;11.344;2023-05-10T05:28:48;9.55;;;5.32;;
25854;SDS011;13680;49.936;11.344;2023-05-10T05:31:14;10.07;;;5.90;;
25854;SDS011;13680;49.936;11.344;2023-05-10T05:33:40;8.23;;;5.53;;
25854;SDS011;13680;49.936;11.344;2023-05-10T05:36:05;8.63;;;5.20;;
25854;SDS011;13680;49.936;11.344;2023-05-10T05:38:31;7.35;;;5.47;;
25854;SDS011;13680;49.936;11.344;2023-05-10T05:40:57;11.77;;;5.47;;
25854;SDS011;13680;49.936;11.344;2023-05-10T05:43:22;7.55;;;6.13;;
25854;SDS011;13680;49.936;11.344;2023-05-10T05:45:47;10.30;;;6.97;;
25854;SDS011;13680;49.936;11.344;2023-05-10T05:48:13;8.20;;;6.45;;
25854;SDS011;13680;49.936;11.344;2023-05-10T05:50:38;4.88;;;4.22;;
25854;SDS011;13680;49.936;11.344;2023-05-10T05:53:03;8.82;;;4.45;;
25854;SDS011;13680;49.936;11.344;2023-05-10T05:55:29;7.40;;;4.57;;
25854;SDS011;13680;49.936;11.344;2023-05-10T05:57:56;5.20;;;3.65;;
25854;SDS011;13680;49.936;11.344;2023-05-10T06:00:22;4.78;;;3.30;;
25854;SDS011;13680;49.936;11.344;2023-05-10T06:02:47;4.38;;;3.03;;
25854;SDS011;13680;49.936;11.344;2023-05-10T06:05:13;4.20;;;2.45;;
25854;SDS011;13680;49.936;11.344;2023-05-10T06:07:39;4.28;;;1.33;;
25854;SDS011;13680;49.936;11.344;2023-05-10T06:10:07;2.40;;;1.83;;
25854;SDS011;13680;49.936;11.344;2023-05-10T06:12:33;3.20;;;1.40;;
25854;SDS011;13680;49.936;11.344;2023-05-10T06:14:58;1.30;;;1.20;;
25854;SDS011;13680;49.936;11.344;2023-05-10T06:17:24;2.47;;;1.65;;
25854;SDS011;13680;49.936;11.344;2023-05-10T06:19:50;1.65;;;1.25;;
25854;SDS011;13680;49.936;11.344;2023-05-10T06:22:15;1.55;;;1.30;;
25854;SDS011;13680;49.936;11.344;2023-05-10T06:24:40;1.27;;;1.10;;
25854;SDS011;13680;49.936;11.344;2023-05-10T06:27:06;1.25;;;1.15;;
25854;SDS011;13680;49.936;11.344;2023-05-10T06:29:32;0.90;;;0.70;;
25854;SDS011;13680;49.936;11.344;2023-05-10T06:31:57;0.70;;;0.70;;
25854;SDS011;13680;49.936;11.344;2023-05-10T06:34:23;0.60;;;0.60;;
25854;SDS011;13680;49.936;11.344;2023-05-10T06:36:49;1.77;;;0.60;;
25854;SDS011;13680;49.936;11.344;2023-05-10T06:39:14;0.55;;;0.55;;
25854;SDS011;13680;49.936;11.344;2023-05-10T06:41:39;0.60;;;0.60;;
25854;SDS011;13680;49.936;11.344;2023-05-10T06:44:05;0.52;;;0.50;;
25854;SDS011;13680;49.936;11.344;2023-05-10T06:46:30;0.88;;;0.60;;
25854;SDS011;13680;49.936;11.344;2023-05-10T06:48:56;0.60;;;0.60;;
25854;SDS011;13680;49.936;11.344;2023-05-10T06:51:21;1.58;;;0.60;;
25854;SDS011;13680;49.936;11.344;2023-05-10T06:53:46;0.50;;;0.50;;
25854;SDS011;13680;49.936;11.344;2023-05-10T06:56:12;0.65;;;0.50;;
25854;SDS011;13680;49.936;11.344;2023-05-10T06:58:37;20.27;;;10.27;;
25854;SDS011;13680;49.936;11.344;2023-05-10T07:01:03;2.40;;;1.67;;
25854;SDS011;13680;49.936;11.344;2023-05-10T07:03:30;1.50;;;1.02;;
25854;SDS011;13680;49.936;11.344;2023-05-10T07:05:59;0.55;;;0.50;;
25854;SDS011;13680;49.936;11.344;2023-05-10T07:08:27;0.80;;;0.50;;
25854;SDS011;13680;49.936;11.344;2023-05-10T07:10:53;2.08;;;1.40;;
25854;SDS011;13680;49.936;11.344;2023-05-10T07:13:28;0.60;;;0.60;;
25854;SDS011;13680;49.936;11.344;2023-05-10T07:15:55;0.55;;;0.55;;
25854;SDS011;13680;49.936;11.344;2023-05-10T07:18:20;0.73;;;0.73;;
25854;SDS011;13680;49.936;11.344;2023-05-10T07:20:46;2.13;;;0.75;;
25854;SDS011;13680;49.936;11.344;2023-05-10T07:23:11;1.30;;;0.50;;
25854;SDS011;13680;49.936;11.344;2023-05-10T07:25:36;0.95;;;0.60;;
25854;SDS011;13680;49.936;11.344;2023-05-10T07:28:02;0.63;;;0.50;;
25854;SDS011;13680;49.936;11.344;2023-05-10T07:30:28;0.60;;;0.50;;
25854;SDS011;13680;49.936;11.344;2023-05-10T07:32:53;2.58;;;0.50;;
25854;SDS011;13680;49.936;11.344;2023-05-10T07:35:18;2.65;;;0.40;;
25854;SDS011;13680;49.936;11.344;2023-05-10T07:37:44;2.20;;;0.40;;
25854;SDS011;13680;49.936;11.344;2023-05-10T07:40:09;0.75;;;0.60;;
25854;SDS011;13680;49.936;11.344;2023-05-10T07:42:35;0.55;;;0.55;;
25854;SDS011;13680;49.936;11.344;2023-05-10T07:45:01;0.80;;;0.60;;
25854;SDS011;13680;49.936;11.344;2023-05-10T07:47:26;1.20;;;0.60;;
25854;SDS011;13680;49.936;11.344;2023-05-10T07:49:52;1.23;;;0.50;;
25854;SDS011;13680;49.936;11.344;2023-05-10T07:52:17;4.60;;;0.70;;
25854;SDS011;13680;49.936;11.344;2023-05-10T07:54:42;2.72;;;0.50;;
25854;SDS011;13680;49.936;11.344;2023-05-10T07:57:08;2.20;;;0.60;;
25854;SDS011;13680;49.936;11.344;2023-05-10T07:59:33;1.20;;;0.60;;
25854;SDS011;13680;49.936;11.344;2023-05-10T08:01:58;2.38;;;1.50;;
25854;SDS011;13680;49.936;11.344;2023-05-10T08:04:24;0.90;;;0.50;;
25854;SDS011;13680;49.936;11.344;2023-05-10T08:06:49;0.40;;;0.40;;
25854;SDS011;13680;49.936;11.344;2023-05-10T08:09:14;0.75;;;0.47;;
25854;SDS011;13680;49.936;11.344;2023-05-10T08:11:40;0.50;;;0.40;;
25854;SDS011;13680;49.936;11.344;2023-05-10T08:14:06;3.17;;;0.60;;
25854;SDS011;13680;49.936;11.344;2023-05-10T08:16:31;1.38;;;0.50;;
25854;SDS011;13680;49.936;11.344;2023-05-10T08:18:57;1.15;;;0.50;;
25854;SDS011;13680;49.936;11.344;2023-05-10T08:21:22;0.68;;;0.60;;
25854;SDS011;13680;49.936;11.344;2023-05-10T08:23:48;1.58;;;0.70;;
25854;SDS011;13680;49.936;11.344;2023-05-10T08:26:13;0.57;;;0.50;;
25854;SDS011;13680;49.936;11.344;2023-05-10T08:28:39;0.50;;;0.50;;
25854;SDS011;13680;49.936;11.344;2023-05-10T08:31:05;0.70;;;0.47;;
25854;SDS011;13680;49.936;11.344;2023-05-10T08:33:30;2.35;;;0.50;;
25854;SDS011;13680;49.936;11.344;2023-05-10T08:35:56;2.20;;;0.60;;
25854;SDS011;13680;49.936;11.344;2023-05-10T08:38:21;1.02;;;0.50;;
25854;SDS011;13680;49.936;11.344;2023-05-10T08:40:46;1.95;;;0.50;;
25854;SDS011;13680;49.936;11.344;2023-05-10T08:43:14;0.68;;;0.60;;
25854;SDS011;13680;49.936;11.344;2023-05-10T08:45:43;0.40;;;0.40;;
25854;SDS011;13680;49.936;11.344;2023-05-10T08:48:11;0.80;;;0.60;;
25854;SDS011;13680;49.936;11.344;2023-05-10T08:50:38;1.55;;;0.70;;
25854;SDS011;13680;49.936;11.344;2023-05-10T08:53:11;2.28;;;0.40;;
25854;SDS011;13680;49.936;11.344;2023-05-10T08:55:38;0.85;;;0.50;;
25854;SDS011;13680;49.936;11.344;2023-05-10T08:58:05;0.45;;;0.40;;
25854;SDS011;13680;49.936;11.344;2023-05-10T09:00:31;0.68;;;0.50;;
25854;SDS011;13680;49.936;11.344;2023-05-10T09:03:00;1.05;;;0.45;;
25854;SDS011;13680;49.936;11.344;2023-05-10T09:05:26;1.17;;;0.60;;
25854;SDS011;13680;49.936;11.344;2023-05-10T09:07:52;2.15;;;1.08;;
25854;SDS011;13680;49.936;11.344;2023-05-10T09:10:18;0.75;;;0.50;;
25854;SDS011;13680;49.936;11.344;2023-05-10T09:12:44;4.22;;;0.60;;
25854;SDS011;13680;49.936;11.344;2023-05-10T09:15:10;3.63;;;1.63;;
25854;SDS011;13680;49.936;11.344;2023-05-10T09:17:37;1.05;;;0.70;;
25854;SDS011;13680;49.936;11.344;2023-05-10T09:20:04;1.75;;;0.45;;
25854;SDS011;13680;49.936;11.344;2023-05-10T09:22:31;1.73;;;0.55;;
25854;SDS011;13680;49.936;11.344;2023-05-10T09:25:03;1.83;;;1.00;;
25854;SDS011;13680;49.936;11.344;2023-05-10T09:27:33;1.45;;;0.60;;
25854;SDS011;13680;49.936;11.344;2023-05-10T09:29:58;0.75;;;0.50;;
25854;SDS011;13680;49.936;11.344;2023-05-10T09:32:45;0.50;;;0.40;;
25854;SDS011;13680;49.936;11.344;2023-05-10T09:35:16;0.70;;;0.45;;
25854;SDS011;13680;49.936;11.344;2023-05-10T09:37:44;1.70;;;0.68;;
25854;SDS011;13680;49.936;11.344;2023-05-10T09:40:19;0.90;;;0.70;;
25854;SDS011;13680;49.936;11.344;2023-05-10T09:43:03;1.65;;;0.60;;
25854;SDS011;13680;49.936;11.344;2023-05-10T09:45:32;0.77;;;0.65;;
25854;SDS011;13680;49.936;11.344;2023-05-10T09:48:00;0.63;;;0.50;;
25854;SDS011;13680;49.936;11.344;2023-05-10T09:50:28;1.58;;;0.73;;
25854;SDS011;13680;49.936;11.344;2023-05-10T09:53:00;1.30;;;0.60;;
25854;SDS011;13680;49.936;11.344;2023-05-10T09:55:40;2.35;;;0.60;;
25854;SDS011;13680;49.936;11.344;2023-05-10T09:58:09;2.42;;;0.77;;
25854;SDS011;13680;49.936;11.344;2023-05-10T10:00:44;1.45;;;0.60;;
25854;SDS011;13680;49.936;11.344;2023-05-10T10:03:13;0.95;;;0.65;;
25854;SDS011;13680;49.936;11.344;2023-05-10T10:05:40;0.98;;;0.65;;
25854;SDS011;13680;49.936;11.344;2023-05-10T10:08:07;0.90;;;0.60;;
25854;SDS011;13680;49.936;11.344;2023-05-10T10:10:33;1.00;;;0.70;;
25854;SDS011;13680;49.936;11.344;2023-05-10T10:12:59;1.15;;;0.73;;
25854;SDS011;13680;49.936;11.344;2023-05-10T10:15:25;1.75;;;0.60;;
25854;SDS011;13680;49.936;11.344;2023-05-10T10:17:51;1.60;;;0.90;;
25854;SDS011;13680;49.936;11.344;2023-05-10T10:20:18;0.82;;;0.57;;
25854;SDS011;13680;49.936;11.344;2023-05-10T10:22:44;1.85;;;0.70;;
25854;SDS011;13680;49.936;11.344;2023-05-10T10:25:11;0.93;;;0.60;;
25854;SDS011;13680;49.936;11.344;2023-05-10T10:31:10;2.20;;;0.70;;
25854;SDS011;13680;49.936;11.344;2023-05-10T10:36:16;1.00;;;0.90;;
25854;SDS011;13680;49.936;11.344;2023-05-10T10:41:29;8.73;;;1.00;;
25854;SDS011;13680;49.936;11.344;2023-05-10T10:47:04;1.00;;;0.60;;
25854;SDS011;13680;49.936;11.344;2023-05-10T10:59:51;2.65;;;0.90;;
25854;SDS011;13680;49.936;11.344;2023-05-10T11:02:46;0.80;;;0.80;;
25854;SDS011;13680;49.936;11.344;2023-05-10T11:10:37;2.78;;;1.10;;
25854;SDS011;13680;49.936;11.344;2023-05-10T11:13:04;3.53;;;1.42;;
25854;SDS011;13680;49.936;11.344;2023-05-10T11:15:31;1.58;;;1.00;;
25854;SDS011;13680;49.936;11.344;2023-05-10T11:21:08;4.85;;;1.05;;
25854;SDS011;13680;49.936;11.344;2023-05-10T11:23:48;3.17;;;1.00;;
25854;SDS011;13680;49.936;11.344;2023-05-10T11:26:16;1.92;;;1.10;;
25854;SDS011;13680;49.936;11.344;2023-05-10T11:28:42;3.35;;;1.10;;
25854;SDS011;13680;49.936;11.344;2023-05-10T11:31:08;1.20;;;1.02;;
25854;SDS011;13680;49.936;11.344;2023-05-10T11:33:44;1.92;;;1.27;;
25854;SDS011;13680;49.936;11.344;2023-05-10T11:36:23;3.28;;;1.00;;
25854;SDS011;13680;49.936;11.344;2023-05-10T11:38:50;2.25;;;1.20;;
25854;SDS011;13680;49.936;11.344;2023-05-10T11:41:17;3.50;;;1.25;;
25854;SDS011;13680;49.936;11.344;2023-05-10T11:43:45;1.50;;;1.40;;
25854;SDS011;13680;49.936;11.344;2023-05-10T11:46:12;2.08;;;1.25;;
25854;SDS011;13680;49.936;11.344;2023-05-10T11:48:38;1.52;;;1.23;;
25854;SDS011;13680;49.936;11.344;2023-05-10T11:51:04;1.75;;;1.10;;
25854;SDS011;13680;49.936;11.344;2023-05-10T11:53:31;1.35;;;0.93;;
25854;SDS011;13680;49.936;11.344;2023-05-10T11:56:07;2.35;;;1.30;;
25854;SDS011;13680;49.936;11.344;2023-05-10T11:58:34;1.55;;;1.00;;
25854;SDS011;13680;49.936;11.344;2023-05-10T12:01:01;1.80;;;1.10;;
25854;SDS011;13680;49.936;11.344;2023-05-10T12:03:27;2.33;;;1.13;;
25854;SDS011;13680;49.936;11.344;2023-05-10T12:05:57;1.20;;;1.00;;
25854;SDS011;13680;49.936;11.344;2023-05-10T12:08:24;1.58;;;0.90;;
25854;SDS011;13680;49.936;11.344;2023-05-10T12:10:51;0.80;;;0.80;;
25854;SDS011;13680;49.936;11.344;2023-05-10T12:13:17;1.30;;;0.70;;
25854;SDS011;13680;49.936;11.344;2023-05-10T12:15:45;2.88;;;0.80;;
25854;SDS011;13680;49.936;11.344;2023-05-10T12:18:11;0.80;;;0.70;;
25854;SDS011;13680;49.936;11.344;2023-05-10T12:20:37;3.85;;;0.50;;
25854;SDS011;13680;49.936;11.344;2023-05-10T12:23:03;1.30;;;0.65;;
25854;SDS011;13680;49.936;11.344;2023-05-10T12:25:31;4.10;;;0.80;;
25854;SDS011;13680;49.936;11.344;2023-05-10T12:27:58;4.53;;;0.70;;
25854;SDS011;13680;49.936;11.344;2023-05-10T12:30:26;1.10;;;0.80;;
25854;SDS011;13680;49.936;11.344;2023-05-10T12:32:52;2.72;;;0.95;;
25854;SDS011;13680;49.936;11.344;2023-05-10T12:35:19;1.00;;;0.80;;
25854;SDS011;13680;49.936;11.344;2023-05-10T12:37:49;1.30;;;1.13;;
25854;SDS011;13680;49.936;11.344;2023-05-10T12:40:16;1.00;;;0.80;;
25854;SDS011;13680;49.936;11.344;2023-05-10T12:42:41;1.63;;;0.75;;
25854;SDS011;13680;49.936;11.344;2023-05-10T12:45:07;2.00;;;1.00;;
25854;SDS011;13680;49.936;11.344;2023-05-10T12:47:33;1.27;;;0.95;;
25854;SDS011;13680;49.936;11.344;2023-05-10T12:50:00;6.03;;;0.88;;
25854;SDS011;13680;49.936;11.344;2023-05-10T12:52:26;1.83;;;1.20;;
25854;SDS011;13680;49.936;11.344;2023-05-10T12:54:52;2.28;;;1.20;;
25854;SDS011;13680;49.936;11.344;2023-05-10T12:57:18;2.33;;;1.10;;
25854;SDS011;13680;49.936;11.344;2023-05-10T12:59:43;1.23;;;1.00;;
25854;SDS011;13680;49.936;11.344;2023-05-10T13:02:09;2.58;;;1.13;;
25854;SDS011;13680;49.936;11.344;2023-05-10T13:04:35;1.52;;;1.40;;
25854;SDS011;13680;49.936;11.344;2023-05-10T13:07:02;1.02;;;0.93;;
25854;SDS011;13680;49.936;11.344;2023-05-10T13:09:27;3.00;;;1.30;;
25854;SDS011;13680;49.936;11.344;2023-05-10T13:11:55;1.45;;;1.27;;
25854;SDS011;13680;49.936;11.344;2023-05-10T13:14:21;1.63;;;1.00;;
25854;SDS011;13680;49.936;11.344;2023-05-10T13:16:46;1.23;;;1.10;;
25854;SDS011;13680;49.936;11.344;2023-05-10T13:19:12;1.98;;;1.20;;
25854;SDS011;13680;49.936;11.344;2023-05-10T13:21:38;2.72;;;1.40;;
25854;SDS011;13680;49.936;11.344;2023-05-10T13:24:05;3.92;;;1.10;;
25854;SDS011;13680;49.936;11.344;2023-05-10T13:26:31;1.65;;;1.20;;
25854;SDS011;13680;49.936;11.344;2023-05-10T13:28:57;1.80;;;1.27;;
25854;SDS011;13680;49.936;11.344;2023-05-10T13:31:22;2.03;;;1.67;;
25854;SDS011;13680;49.936;11.344;2023-05-10T13:33:47;1.33;;;1.15;;
25854;SDS011;13680;49.936;11.344;2023-05-10T13:36:12;3.33;;;2.00;;
25854;SDS011;13680;49.936;11.344;2023-05-10T13:38:38;6.20;;;1.17;;
25854;SDS011;13680;49.936;11.344;2023-05-10T13:41:03;2.50;;;0.95;;
25854;SDS011;13680;49.936;11.344;2023-05-10T13:43:29;1.52;;;1.23;;
25854;SDS011;13680;49.936;11.344;2023-05-10T13:45:54;1.20;;;1.08;;
25854;SDS011;13680;49.936;11.344;2023-05-10T13:48:20;2.05;;;1.63;;
25854;SDS011;13680;49.936;11.344;2023-05-10T13:50:46;4.70;;;2.17;;
25854;SDS011;13680;49.936;11.344;2023-05-10T13:53:11;7.40;;;1.90;;
25854;SDS011;13680;49.936;11.344;2023-05-10T13:55:37;1.95;;;1.52;;
25854;SDS011;13680;49.936;11.344;2023-05-10T13:58:03;4.57;;;2.22;;
25854;SDS011;13680;49.936;11.344;2023-05-10T14:00:28;6.93;;;3.80;;
25854;SDS011;13680;49.936;11.344;2023-05-10T14:02:53;5.13;;;3.00;;
25854;SDS011;13680;49.936;11.344;2023-05-10T14:05:19;3.88;;;2.53;;
25854;SDS011;13680;49.936;11.344;2023-05-10T14:07:45;3.72;;;2.08;;
25854;SDS011;13680;49.936;11.344;2023-05-10T14:10:10;3.00;;;1.10;;
25854;SDS011;13680;49.936;11.344;2023-05-10T14:12:35;3.40;;;1.05;;
25854;SDS011;13680;49.936;11.344;2023-05-10T14:15:01;5.95;;;1.60;;
25854;SDS011;13680;49.936;11.344;2023-05-10T14:17:27;2.85;;;1.60;;
25854;SDS011;13680;49.936;11.344;2023-05-10T14:19:52;3.53;;;1.40;;
25854;SDS011;13680;49.936;11.344;2023-05-10T14:22:18;3.33;;;1.38;;
25854;SDS011;13680;49.936;11.344;2023-05-10T14:24:43;4.70;;;2.88;;
25854;SDS011;13680;49.936;11.344;2023-05-10T14:27:11;3.22;;;1.30;;
25854;SDS011;13680;49.936;11.344;2023-05-10T14:29:37;3.90;;;1.45;;
25854;SDS011;13680;49.936;11.344;2023-05-10T14:32:02;3.25;;;1.60;;
25854;SDS011;13680;49.936;11.344;2023-05-10T14:34:28;4.45;;;1.73;;
25854;SDS011;13680;49.936;11.344;2023-05-10T14:36:53;1.83;;;1.45;;
25854;SDS011;13680;49.936;11.344;2023-05-10T14:39:20;1.83;;;1.25;;
25854;SDS011;13680;49.936;11.344;2023-05-10T14:41:45;3.10;;;1.60;;
25854;SDS011;13680;49.936;11.344;2023-05-10T14:44:12;4.93;;;1.10;;
25854;SDS011;13680;49.936;11.344;2023-05-10T14:46:38;2.33;;;1.02;;
25854;SDS011;13680;49.936;11.344;2023-05-10T14:49:04;2.50;;;0.95;;
25854;SDS011;13680;49.936;11.344;2023-05-10T14:51:29;0.98;;;0.80;;
25854;SDS011;13680;49.936;11.344;2023-05-10T14:53:55;1.52;;;1.20;;
25854;SDS011;13680;49.936;11.344;2023-05-10T14:56:20;4.70;;;2.85;;
25854;SDS011;13680;49.936;11.344;2023-05-10T14:58:46;3.58;;;1.25;;
25854;SDS011;13680;49.936;11.344;2023-05-10T15:01:11;2.28;;;1.30;;
25854;SDS011;13680;49.936;11.344;2023-05-10T15:03:37;2.92;;;1.15;;
25854;SDS011;13680;49.936;11.344;2023-05-10T15:06:03;1.67;;;1.10;;
25854;SDS011;13680;49.936;11.344;2023-05-10T15:08:28;2.08;;;1.20;;
25854;SDS011;13680;49.936;11.344;2023-05-10T15:10:54;3.85;;;2.38;;
25854;SDS011;13680;49.936;11.344;2023-05-10T15:13:20;2.88;;;1.15;;
25854;SDS011;13680;49.936;11.344;2023-05-10T15:15:46;12.82;;;2.30;;
25854;SDS011;13680;49.936;11.344;2023-05-10T15:18:11;6.95;;;1.85;;
25854;SDS011;13680;49.936;11.344;2023-05-10T15:20:37;3.47;;;1.88;;
25854;SDS011;13680;49.936;11.344;2023-05-10T15:23:02;3.28;;;1.30;;